Flight Track Log - Related Links

Times and Time Zones

All times are in EST time to prevent confusion due to time zone crossing. See the FLG3861 flight status page for this flight to view local times or setup timezone preferences in your user account.

Time Position Orientation Groundspeed Altitude Reporting Facility
EST Latitude Longitude Course Direction KTS MPH feet Rate Location/Type
Mon 09:54:50 PM 42.2261 -83.3531 42° Northeast 146 168 1,500  Level Cleveland Center
Mon 09:55:32 PM 42.2514 -83.3228 42° Northeast 190 219 3,200 2,387 Climbing Cleveland Center
Mon 09:56:23 PM 42.2789 -83.2864 44° Northeast 188 216 5,200 2,945 Climbing Cleveland Center
Mon 09:56:27 PM 42.2847 -83.2711 63° Northeast 228 262 5,900 2,710 Climbing Cleveland Center
Mon 09:57:25 PM 42.2950 -83.1839 81° East 248 285 8,000 2,164 Climbing Cleveland Center
Mon 09:57:28 PM 42.2961 -83.1767 78° East 271 312 8,100 2,095 Climbing Cleveland Center
Mon 09:58:28 PM 42.3089 -83.0656 81° East 312 359 10,200 1,750 Climbing Cleveland Center
Mon 09:59:28 PM 42.3197 -82.9461 83° East 335 386 11,600 1,537 Climbing Cleveland Center
Mon 10:00:29 PM 42.3342 -82.8050 82° East 369 425 13,300 1,805 Climbing Cleveland Center
Mon 10:01:31 PM 42.3483 -82.6567 83° East 389 448 15,300 1,610 Climbing Cleveland Center
Mon 10:02:32 PM 42.3619 -82.5008 83° East 410 472 16,600 976 Climbing Cleveland Center
Mon 10:03:34 PM 42.3633 -82.3283 89° East 458 527 17,300 1,073 Climbing Cleveland Center
Mon 10:04:35 PM 42.3539 -82.1250 94° East 473 544 18,800 829 Climbing Cleveland Center
Mon 10:05:37 PM 42.3453 -81.9419 94° East 479 551 19,000 439 Climbing Cleveland Center
Mon 10:06:38 PM 42.3369 -81.7433 93° East 512 589 19,700 732 Climbing Cleveland Center
Mon 10:07:40 PM 42.3289 -81.5422 93° East 525 604 20,500 634 Climbing Cleveland Center
Mon 10:08:41 PM 42.3183 -81.3400 94° East 532 612 21,000 492 Climbing Cleveland Center
Mon 10:09:42 PM 42.3094 -81.1344 93° East 539 620 21,500 488 Climbing Cleveland Center
Mon 10:10:44 PM 42.2978 -80.9289 94° East 543 625 22,000 488 Climbing Cleveland Center
Mon 10:11:45 PM 42.2869 -80.7222 94° East 546 628 22,500 488 Climbing Cleveland Center
Mon 10:12:47 PM 42.2761 -80.5183 94° East 541 623 23,000 488 Climbing Cleveland Center
Mon 10:13:48 PM 42.2650 -80.3128 94° East 544 626 23,500 537 Climbing Cleveland Center
Mon 10:14:50 PM 42.2522 -80.1072 95° East 544 626 24,100 537 Climbing Cleveland Center
Mon 10:15:51 PM 42.2492 -79.8800 91° East 541 623 24,600 492 Climbing Cleveland Center
Mon 10:16:52 PM 42.2503 -79.6758 90° East 544 626 25,100 488 Climbing Cleveland Center
Mon 10:17:54 PM 42.2508 -79.4722 90° East 544 626 25,600 488 Climbing Cleveland Center
Mon 10:18:55 PM 42.2506 -79.2686 90° East 544 626 26,100 492 Climbing Cleveland Center
Mon 10:19:56 PM 42.2508 -79.0644 90° East 546 628 26,600 439 Climbing Cleveland Center
Mon 10:20:58 PM 42.2519 -78.8411 90° East 545 627 27,000 195 Climbing Cleveland Center
Mon 10:21:59 PM 42.2508 -78.6347 90° East 549 632 27,000  Level Cleveland Center
Mon 10:23:00 PM 42.2497 -78.4267 90° East 556 640 27,000 -195 Level Cleveland Center
Mon 10:24:02 PM 42.2486 -78.2175 90° East 561 646 26,600 -683 Descending Cleveland Center
Mon 10:25:03 PM 42.2467 -78.0097 91° East 559 643 25,600 -1,082 Descending Cleveland Center
Mon 10:26:04 PM 42.2439 -77.7647 91° East 552 635 24,400 -1,073 Descending Cleveland Center
Mon 10:27:06 PM 42.2408 -77.5611 91° East 551 634 23,400 -1,512 Descending Cleveland Center
Mon 10:28:07 PM 42.2378 -77.3614 91° East 543 625 21,300 -2,016 Descending Cleveland Center
Mon 10:29:08 PM 42.2356 -77.1647 91° East 533 613 19,300 -1,892 Descending Cleveland Center
Mon 10:29:58 PM 42.2322 -77.0106 92° East 533 613 17,800 -1,944 Descending New York Center
Mon 10:30:56 PM 42.2292 -76.8283 91° East 509 586 15,800 -2,723 Descending New York Center
Mon 10:31:57 PM 42.2239 -76.6431 92° East 475 547 12,400 -2,607 Descending New York Center
Mon 10:32:58 PM 42.2206 -76.4942 92° East 432 497 10,500 -1,820 Descending New York Center
Mon 10:33:59 PM 42.2158 -76.3736 93° East 373 429 8,700 -1,729 Descending New York Center
Mon 10:34:56 PM 42.2128 -76.2611 92° East 325 374 7,100 -1,119 Descending New York Center
Mon 10:35:57 PM 42.1817 -76.1719 115° Southeast 276 318 6,500 -1,122 Descending New York Center
Mon 10:36:59 PM 42.1242 -76.1056 139° Southeast 265 305 4,800 -1,250 Descending New York Center
Mon 10:37:57 PM 42.0786 -76.0517 139° Southeast 265 305 4,000 -407 Descending New York Center
Mon 10:38:57 PM 42.0214 -75.9828 138° Southeast 265 305 4,000  Level New York Center
Mon 10:39:57 PM 41.9814 -75.8961 122° Southeast 250 288 4,000 -50 Level New York Center
Mon 10:40:57 PM 41.9969 -75.8247 74° East 203 234 3,900 -50 Descending New York Center
Mon 10:41:57 PM 42.0422 -75.8394 346° North 131 151 3,900  Level New York Center
Mon 10:42:58 PM 42.0761 -75.8697 326° Northwest 131 151 3,900 -49 Level New York Center
Mon 10:43:59 PM 42.1122 -75.9006 328° Northwest 142 163 3,800 -403 Descending New York Center
Mon 10:44:57 PM 42.1444 -75.9283 327° Northwest 147 169 3,100 -864 Descending New York Center
Mon 10:45:57 PM 42.1786 -75.9561 329° Northwest 135 155 2,100 -1,000 Descending New York Center

Login

Don't have an account? Register now (free) for customized features, flight alerts, and more!